Time;durP1;ratioP1;P1;durP2;ratioP2;P2;SDS_P1;SDS_P2;PMS_P1;PMS_P2;Temp;Humidity;BMP_temperature;BMP_pressure;BME280_temperature;BME280_humidity;BME280_pressure;Samples;Min_cycle;Max_cycle;Signal;HPM_P1;HPM_P2
2022/05/27 00:01:50;;;;;;;5.38;2.17;;;17.20;99.90;;;;;;5055561;28;20113;-81
2022/05/27 00:04:16;;;;;;;4.85;2.53;;;16.80;99.90;;;;;;5061099;28;20075;-81
2022/05/27 00:06:41;;;;;;;4.85;2.33;;;16.80;99.90;;;;;;5040227;28;20028;-83
2022/05/27 00:09:07;;;;;;;4.32;2.80;;;16.80;99.90;;;;;;5061345;28;20482;-81
2022/05/27 00:11:32;;;;;;;5.50;2.60;;;16.70;99.90;;;;;;5050794;28;20021;-83
2022/05/27 00:13:59;;;;;;;5.13;2.70;;;16.70;99.90;;;;;;5060049;28;20028;-83
2022/05/27 00:16:25;;;;;;;5.15;2.58;;;;;;;;;;5049924;28;20013;-82
2022/05/27 00:18:51;;;;;;;4.45;2.50;;;;;;;;;;5043934;28;20025;-84
2022/05/27 00:21:17;;;;;;;5.50;2.53;;;16.60;99.90;;;;;;5048966;28;20430;-85
2022/05/27 00:23:42;;;;;;;5.18;2.78;;;18.50;99.90;;;;;;5052187;28;20028;-82
2022/05/27 00:26:08;;;;;;;4.28;2.90;;;;;;;;;;5061269;28;20025;-83
2022/05/27 00:28:34;;;;;;;6.05;2.78;;;16.50;99.90;;;;;;5063223;28;20112;-84
2022/05/27 00:31:00;;;;;;;7.53;3.70;;;16.50;99.90;;;;;;5021284;28;20447;-82
2022/05/27 00:33:26;;;;;;;10.05;4.15;;;17.50;99.90;;;;;;5034365;28;20052;-82
2022/05/27 00:35:52;;;;;;;5.30;3.03;;;16.40;99.90;;;;;;5040189;28;20033;-84
2022/05/27 00:38:18;;;;;;;11.10;5.43;;;16.40;99.90;;;;;;5058547;28;20025;-83
2022/05/27 00:40:46;;;;;;;8.65;3.88;;;16.40;99.90;;;;;;5040728;28;20033;-82
2022/05/27 00:43:13;;;;;;;8.55;4.38;;;16.30;99.90;;;;;;5039474;28;20486;-81
2022/05/27 00:45:42;;;;;;;6.57;3.00;;;16.20;99.90;;;;;;5056241;28;20044;-84
2022/05/27 00:48:13;;;;;;;13.23;5.80;;;18.10;99.90;;;;;;5039099;28;20029;-83
2022/05/27 00:50:41;;;;;;;5.30;2.88;;;16.20;99.90;;;;;;5040654;28;20021;-84
2022/05/27 00:53:09;;;;;;;7.45;3.22;;;16.10;99.90;;;;;;5053481;28;20030;-84
2022/05/27 00:55:41;;;;;;;8.65;3.70;;;15.90;99.90;;;;;;5056214;28;20017;-81
2022/05/27 00:58:23;;;;;;;7.60;4.32;;;15.90;99.90;;;;;;5056732;28;20491;-81
2022/05/27 01:00:50;;;;;;;6.25;3.10;;;15.80;99.90;;;;;;5039596;28;20029;-84
2022/05/27 01:03:17;;;;;;;7.60;3.70;;;15.80;99.90;;;;;;5039239;28;20033;-85
2022/05/27 01:05:46;;;;;;;5.63;3.58;;;17.90;99.90;;;;;;5045940;28;20059;-82
2022/05/27 01:08:15;;;;;;;7.65;3.67;;;15.90;99.90;;;;;;5037633;28;20149;-84
2022/05/27 01:10:46;;;;;;;7.28;3.90;;;15.70;99.90;;;;;;5062142;28;20021;-83
2022/05/27 01:13:39;;;;;;;6.57;3.60;;;15.60;99.90;;;;;;5060513;28;20017;-83
2022/05/27 01:16:17;;;;;;;6.95;3.83;;;15.50;99.90;;;;;;5067237;28;20021;-85
2022/05/27 01:22:17;;;;;;;7.85;3.97;;;15.50;99.90;;;;;;5057823;28;20454;-84
2022/05/27 01:25:20;;;;;;;6.78;4.30;;;15.50;99.90;;;;;;5039456;28;20025;-83
2022/05/27 01:28:12;;;;;;;5.95;4.22;;;15.40;99.90;;;;;;5039942;28;20111;-81
2022/05/27 01:30:41;;;;;;;8.27;4.70;;;15.40;99.90;;;;;;5031510;28;20041;-83
2022/05/27 01:33:40;;;;;;;7.80;4.65;;;15.30;99.90;;;;;;5058466;28;20021;-85
2022/05/27 01:36:32;;;;;;;9.18;5.20;;;15.30;99.90;;;;;;5044737;28;20025;-83
2022/05/27 01:39:00;;;;;;;7.22;4.93;;;15.10;99.90;;;;;;5062492;28;20025;-84
2022/05/27 01:41:31;;;;;;;9.77;5.38;;;15.10;99.90;;;;;;5065588;28;20033;-81
2022/05/27 01:44:11;;;;;;;8.25;4.97;;;15.10;99.90;;;;;;5044957;28;20055;-81
2022/05/27 01:46:44;;;;;;;8.68;5.32;;;15.10;99.90;;;;;;5044235;28;20564;-84
2022/05/27 01:49:29;;;;;;;6.47;5.20;;;15.10;99.90;;;;;;5042245;28;20029;-84
2022/05/27 01:52:04;;;;;;;9.35;5.60;;;15.20;99.90;;;;;;5043068;28;20382;-84
2022/05/27 01:54:40;;;;;;;5.72;4.60;;;15.10;99.90;;;;;;5042270;28;20024;-83
2022/05/27 01:57:40;;;;;;;9.35;5.43;;;15.10;99.90;;;;;;5037798;28;20951;-83
2022/05/27 02:00:24;;;;;;;11.75;6.18;;;15.10;99.90;;;;;;5039387;28;20538;-83
2022/05/27 02:03:30;;;;;;;9.93;5.32;;;15.20;99.90;;;;;;5036352;28;20025;-81
2022/05/27 02:06:19;;;;;;;11.88;5.18;;;15.20;99.90;;;;;;5042683;28;20029;-80
2022/05/27 02:08:56;;;;;;;7.13;4.78;;;15.20;99.90;;;;;;5041645;28;20016;-82
2022/05/27 02:11:23;;;;;;;9.82;5.80;;;15.20;99.90;;;;;;5044484;28;20029;-81
2022/05/27 02:13:58;;;;;;;6.78;5.18;;;15.20;99.90;;;;;;5062933;28;20066;-82
2022/05/27 02:16:31;;;;;;;7.97;5.55;;;15.20;99.90;;;;;;5064645;28;20085;-83
2022/05/27 02:19:22;;;;;;;7.10;5.10;;;16.70;99.90;;;;;;5060277;28;20071;-84
2022/05/27 02:22:03;;;;;;;9.40;6.00;;;15.20;99.90;;;;;;5032386;28;20033;-84
2022/05/27 02:24:39;;;;;;;9.05;5.80;;;15.20;99.90;;;;;;5042063;28;20033;-82
2022/05/27 02:27:18;;;;;;;8.45;5.35;;;15.20;99.90;;;;;;5041384;28;20430;-85
2022/05/27 02:29:49;;;;;;;9.10;5.95;;;16.10;99.90;;;;;;5060673;28;20228;-82
2022/05/27 02:32:31;;;;;;;9.75;5.75;;;15.20;99.90;;;;;;5060577;28;20116;-81
2022/05/27 02:35:14;;;;;;;10.35;5.60;;;15.20;99.90;;;;;;5041639;28;20494;-83
2022/05/27 02:37:50;;;;;;;7.88;5.10;;;15.20;99.90;;;;;;5057400;28;20063;-82
2022/05/27 02:40:27;;;;;;;7.65;5.70;;;15.50;99.90;;;;;;5042264;28;20112;-82
2022/05/27 02:42:52;;;;;;;7.25;4.95;;;17.00;99.90;;;;;;5059698;28;20021;-80
2022/05/27 02:45:49;;;;;;;8.98;5.85;;;16.30;99.90;;;;;;5040647;28;20097;-84
2022/05/27 02:48:26;;;;;;;9.52;5.85;;;15.30;99.90;;;;;;5051949;28;20032;-81
2022/05/27 02:51:10;;;;;;;9.15;5.80;;;15.30;99.90;;;;;;5040912;28;20096;-83
2022/05/27 02:53:53;;;;;;;6.70;5.35;;;15.30;99.90;;;;;;5043012;28;20029;-83
2022/05/27 02:56:35;;;;;;;6.63;5.05;;;15.40;99.90;;;;;;5042988;28;20017;-84
2022/05/27 02:59:02;;;;;;;6.80;4.82;;;15.60;99.90;;;;;;5041440;28;20033;-82
2022/05/27 03:01:27;;;;;;;11.95;5.13;;;15.40;99.90;;;;;;5064835;28;20068;-84
2022/05/27 03:03:53;;;;;;;8.57;5.18;;;15.40;99.90;;;;;;5048566;28;20036;-82
2022/05/27 03:06:39;;;;;;;9.00;5.00;;;15.60;99.90;;;;;;5051321;28;20029;-81
2022/05/27 03:09:18;;;;;;;9.05;5.40;;;15.40;99.90;;;;;;5046805;28;20016;-81
2022/05/27 03:11:49;;;;;;;6.85;4.20;;;15.40;99.90;;;;;;5043628;28;20025;-84
2022/05/27 03:14:27;;;;;;;7.55;4.95;;;15.50;99.90;;;;;;5047396;28;20043;-82
2022/05/27 03:17:02;;;;;;;7.82;4.90;;;15.50;99.90;;;;;;5045449;28;20536;-83
2022/05/27 03:19:46;;;;;;;6.60;4.75;;;15.50;99.90;;;;;;5040599;28;20041;-81
2022/05/27 03:22:43;;;;;;;7.95;4.80;;;15.40;99.90;;;;;;5053144;28;20040;-83
2022/05/27 03:25:35;;;;;;;9.68;4.63;;;15.30;99.90;;;;;;5040683;28;20124;-84
2022/05/27 03:28:07;;;;;;;5.72;4.57;;;15.30;99.90;;;;;;5040722;28;20074;-83
2022/05/27 03:30:59;;;;;;;7.18;4.40;;;15.40;99.90;;;;;;5041856;28;20044;-84
2022/05/27 03:33:28;;;;;;;7.50;4.43;;;15.40;99.90;;;;;;5042388;28;20087;-83
2022/05/27 03:36:11;;;;;;;7.13;4.57;;;15.40;99.90;;;;;;5041328;28;20120;-83
2022/05/27 03:38:43;;;;;;;8.65;4.80;;;15.40;99.90;;;;;;5041940;28;20032;-83
2022/05/27 03:41:18;;;;;;;9.52;4.45;;;15.40;99.90;;;;;;5059736;28;20021;-84
2022/05/27 03:43:45;;;;;;;8.32;4.40;;;15.50;99.90;;;;;;5042031;28;20114;-83
2022/05/27 03:46:11;;;;;;;7.95;4.50;;;15.40;99.90;;;;;;5063144;28;20127;-83
2022/05/27 03:48:37;;;;;;;5.82;4.60;;;15.50;99.90;;;;;;5045022;28;20025;-84
2022/05/27 03:51:18;;;;;;;5.13;4.30;;;15.50;99.90;;;;;;5043911;28;20021;-82
2022/05/27 03:56:28;;;;;;;6.85;4.10;;;15.40;99.90;;;;;;5059894;28;20094;-86
2022/05/27 03:58:54;;;;;;;6.97;4.20;;;15.40;99.90;;;;;;5041752;28;20519;-84
2022/05/27 04:01:25;;;;;;;8.30;4.32;;;15.50;99.90;;;;;;5060076;28;20447;-82
2022/05/27 04:03:51;;;;;;;8.10;4.50;;;15.60;99.90;;;;;;5041704;28;20036;-80
2022/05/27 04:06:17;;;;;;;10.10;4.32;;;15.30;99.90;;;;;;5062107;28;20021;-81
2022/05/27 04:08:43;;;;;;;6.05;4.32;;;16.40;99.90;;;;;;5048060;28;20028;-81
2022/05/27 04:11:09;;;;;;;8.40;4.30;;;15.30;99.90;;;;;;5063050;28;20029;-84
2022/05/27 04:13:36;;;;;;;6.18;3.80;;;15.40;99.90;;;;;;5064377;28;20025;-81
2022/05/27 04:16:01;;;;;;;6.30;3.53;;;16.00;99.90;;;;;;5063857;28;20100;-83
2022/05/27 04:18:27;;;;;;;7.65;4.70;;;16.40;99.90;;;;;;5060692;28;20053;-83
2022/05/27 04:20:53;;;;;;;6.93;3.67;;;16.40;99.90;;;;;;5042348;28;20064;-82
2022/05/27 04:23:19;;;;;;;6.85;3.72;;;15.40;99.90;;;;;;5042709;28;20521;-83
2022/05/27 04:25:49;;;;;;;6.15;4.00;;;15.50;99.90;;;;;;5041478;28;20039;-81
2022/05/27 04:28:15;;;;;;;4.88;3.30;;;15.50;99.90;;;;;;5059710;28;20032;-81
2022/05/27 04:30:41;;;;;;;4.95;3.08;;;17.70;99.90;;;;;;5029159;28;20035;-82
2022/05/27 04:33:08;;;;;;;4.85;3.28;;;15.60;99.90;;;;;;5061193;28;20017;-84
2022/05/27 04:35:35;;;;;;;4.65;3.40;;;16.80;99.90;;;;;;5060596;28;20044;-83
2022/05/27 04:38:01;;;;;;;6.03;3.25;;;16.90;99.90;;;;;;5060478;28;20093;-83
2022/05/27 04:40:27;;;;;;;5.60;3.40;;;15.50;99.90;;;;;;5042437;28;20060;-82
2022/05/27 04:42:52;;;;;;;5.55;3.25;;;15.50;99.90;;;;;;5042177;28;20040;-84
2022/05/27 04:45:20;;;;;;;3.90;3.08;;;15.60;99.90;;;;;;5044471;28;20032;-80
2022/05/27 04:47:45;;;;;;;5.65;3.53;;;15.60;99.90;;;;;;5046352;28;20025;-83
2022/05/27 04:50:12;;;;;;;8.13;3.60;;;15.60;99.90;;;;;;5042221;28;20495;-83
2022/05/27 04:52:38;;;;;;;6.55;3.53;;;15.50;99.90;;;;;;5041242;28;20029;-85
2022/05/27 04:55:08;;;;;;;5.30;2.88;;;15.60;99.90;;;;;;5058270;28;20031;-82
2022/05/27 04:57:38;;;;;;;5.85;3.17;;;15.60;99.90;;;;;;5041092;28;20036;-82
2022/05/27 05:00:16;;;;;;;5.13;2.80;;;15.60;99.90;;;;;;5041703;28;20025;-84
2022/05/27 05:02:42;;;;;;;6.53;3.70;;;15.60;99.90;;;;;;5059290;28;20033;-83
2022/05/27 05:05:09;;;;;;;4.97;3.17;;;15.60;99.90;;;;;;5041720;28;20028;-84
2022/05/27 05:07:37;;;;;;;6.35;3.30;;;15.60;99.90;;;;;;5048394;28;20033;-84
2022/05/27 05:10:03;;;;;;;8.75;3.28;;;15.60;99.90;;;;;;5064369;28;20040;-84
2022/05/27 05:12:29;;;;;;;5.72;3.25;;;15.60;99.90;;;;;;5059507;28;20027;-84
2022/05/27 05:14:54;;;;;;;4.47;3.08;;;18.00;99.90;;;;;;5066644;28;20475;-83
2022/05/27 05:17:21;;;;;;;5.72;3.78;;;15.70;99.90;;;;;;5063610;28;20109;-82
2022/05/27 05:19:48;;;;;;;5.40;3.15;;;;;;;;;;5044961;28;20112;-81
2022/05/27 05:22:14;;;;;;;6.20;3.80;;;15.80;99.90;;;;;;5052377;28;20035;-82
2022/05/27 05:24:39;;;;;;;5.47;3.63;;;15.80;99.90;;;;;;5045239;28;20025;-82
2022/05/27 05:27:05;;;;;;;6.53;3.65;;;17.20;99.90;;;;;;5038449;28;20308;-81
2022/05/27 05:29:31;;;;;;;7.68;3.67;;;15.80;99.90;;;;;;5039063;28;20027;-82
2022/05/27 05:31:56;;;;;;;5.82;3.22;;;16.70;99.90;;;;;;5037999;28;20025;-82
2022/05/27 05:34:22;;;;;;;6.07;3.22;;;15.80;99.90;;;;;;5051309;28;20103;-82
2022/05/27 05:36:48;;;;;;;5.03;3.08;;;16.00;99.90;;;;;;5061913;28;20131;-82
2022/05/27 05:39:13;;;;;;;5.68;2.67;;;16.20;99.90;;;;;;5038978;28;20601;-84
2022/05/27 05:41:40;;;;;;;6.18;3.25;;;16.00;99.90;;;;;;5039077;28;20028;-82
2022/05/27 05:44:08;;;;;;;4.53;2.80;;;16.00;99.90;;;;;;5041040;28;20059;-83
2022/05/27 05:46:36;;;;;;;4.25;2.47;;;15.90;99.90;;;;;;5066807;28;20398;-83
2022/05/27 05:49:03;;;;;;;5.72;2.63;;;16.10;99.90;;;;;;5056521;28;20104;-80
2022/05/27 05:51:29;;;;;;;3.72;2.50;;;;;;;;;;5039624;28;20028;-81
2022/05/27 05:53:55;;;;;;;4.20;2.50;;;16.20;99.90;;;;;;5057324;28;20032;-83
2022/05/27 05:56:22;;;;;;;3.47;2.40;;;18.30;99.90;;;;;;5038870;28;20033;-80
2022/05/27 05:58:50;;;;;;;3.75;2.25;;;16.20;99.90;;;;;;5039190;28;20067;-82
2022/05/27 06:01:16;;;;;;;5.22;2.30;;;16.30;99.90;;;;;;5040433;28;20115;-82
2022/05/27 06:03:42;;;;;;;4.00;2.53;;;17.30;99.90;;;;;;5039798;28;20495;-85
2022/05/27 06:06:08;;;;;;;4.28;2.70;;;;;;;;;;5045485;28;20059;-84
2022/05/27 06:08:33;;;;;;;5.10;2.47;;;16.40;99.90;;;;;;5047069;28;20105;-84
2022/05/27 06:10:59;;;;;;;3.95;2.28;;;16.40;99.90;;;;;;5058684;28;20113;-80
2022/05/27 06:13:28;;;;;;;4.57;2.75;;;17.20;99.90;;;;;;5059343;28;20351;-82
2022/05/27 06:15:54;;;;;;;5.00;2.78;;;17.00;99.90;;;;;;5051084;28;20478;-81
2022/05/27 06:18:20;;;;;;;4.18;2.60;;;;;;;;;;5044774;28;20025;-82
2022/05/27 06:20:45;;;;;;;5.88;2.28;;;16.10;99.90;;;;;;5044494;28;20033;-83
2022/05/27 06:23:11;;;;;;;4.45;2.60;;;16.10;99.90;;;;;;5044208;28;20033;-79
2022/05/27 06:25:38;;;;;;;3.60;2.22;;;16.10;99.90;;;;;;5043863;28;20479;-82
2022/05/27 06:36:18;;;;;;;5.53;3.03;;;16.30;99.90;;;;;;5049159;28;20394;-83
2022/05/27 06:38:43;;;;;;;5.63;2.72;;;16.40;99.90;;;;;;5057958;28;20024;-83
2022/05/27 06:41:09;;;;;;;5.05;2.65;;;16.50;99.90;;;;;;5055833;28;20017;-81
2022/05/27 06:43:35;;;;;;;3.72;2.15;;;16.50;99.90;;;;;;5066120;28;20627;-82
2022/05/27 06:46:00;;;;;;;4.03;2.13;;;16.60;99.90;;;;;;5063332;28;20083;-81
2022/05/27 06:48:29;;;;;;;5.80;2.08;;;16.60;99.90;;;;;;5063267;28;20040;-83
2022/05/27 06:50:55;;;;;;;5.80;2.45;;;16.40;99.90;;;;;;5063508;28;20021;-81
2022/05/27 06:53:20;;;;;;;4.53;2.63;;;16.40;99.90;;;;;;5063402;28;20032;-84
2022/05/27 06:55:50;;;;;;;5.18;2.20;;;16.40;99.90;;;;;;5061072;28;20033;-83
2022/05/27 06:58:16;;;;;;;3.85;2.08;;;;;;;;;;5059962;28;20093;-85
2022/05/27 07:00:42;;;;;;;5.07;2.30;;;16.30;99.90;;;;;;5047795;28;20037;-83
2022/05/27 07:03:08;;;;;;;4.15;1.80;;;16.30;99.90;;;;;;5063186;28;20267;-83
2022/05/27 07:05:35;;;;;;;3.35;1.70;;;;;;;;;;5045458;28;20035;-84
2022/05/27 07:08:03;;;;;;;4.35;2.08;;;16.40;99.90;;;;;;5062602;28;20486;-82
2022/05/27 07:10:29;;;;;;;5.22;2.30;;;16.40;99.90;;;;;;5061960;28;20029;-82
2022/05/27 07:12:56;;;;;;;4.05;2.30;;;;;;;;;;5043706;28;20100;-84
2022/05/27 07:15:22;;;;;;;5.72;2.10;;;;;;;;;;5060219;28;20023;-84
2022/05/27 07:17:47;;;;;;;4.13;2.10;;;16.60;99.90;;;;;;5073438;28;20116;-83
2022/05/27 07:20:13;;;;;;;6.00;1.80;;;18.10;99.90;;;;;;5073541;28;20522;-83
2022/05/27 07:22:39;;;;;;;3.78;1.92;;;16.60;99.90;;;;;;5066676;28;20028;-86
2022/05/27 07:25:05;;;;;;;4.45;1.80;;;16.60;99.90;;;;;;5043176;28;20028;-84
2022/05/27 07:27:30;;;;;;;3.05;1.70;;;16.60;99.90;;;;;;5060334;28;20052;-84
2022/05/27 07:29:56;;;;;;;3.85;1.80;;;;;;;;;;5058508;28;20036;-85
2022/05/27 07:32:22;;;;;;;3.45;1.70;;;16.60;99.90;;;;;;5050245;28;20027;-87
2022/05/27 07:34:47;;;;;;;3.45;1.70;;;19.00;99.90;;;;;;5048331;28;20030;-82
2022/05/27 07:37:13;;;;;;;3.17;1.63;;;16.60;99.90;;;;;;5046829;28;20027;-83
2022/05/27 07:39:39;;;;;;;3.65;2.05;;;16.60;99.90;;;;;;5058862;28;20031;-83
2022/05/27 07:42:05;;;;;;;3.25;1.63;;;17.50;99.90;;;;;;5041665;28;20037;-82
2022/05/27 07:44:31;;;;;;;3.38;1.75;;;;;;;;;;5060467;28;20067;-83
2022/05/27 07:46:57;;;;;;;3.63;1.50;;;;;;;;;;5044459;28;20025;-83
2022/05/27 08:00:06;;;;;;;3.63;2.13;;;16.60;99.90;;;;;;5117353;27;1288422;-84
2022/05/27 08:02:32;;;;;;;4.15;1.60;;;16.50;99.90;;;;;;5109773;28;20035;-84
2022/05/27 08:04:58;;;;;;;5.07;1.65;;;19.50;99.90;;;;;;5118401;28;20122;-85
2022/05/27 08:07:26;;;;;;;2.95;1.73;;;16.80;99.90;;;;;;5135160;28;20024;-84
2022/05/27 08:09:52;;;;;;;4.55;1.50;;;16.60;99.90;;;;;;5120813;28;20066;-83
2022/05/27 08:12:17;;;;;;;2.20;1.40;;;16.70;99.90;;;;;;5116769;28;20118;-86
2022/05/27 08:14:43;;;;;;;3.47;1.40;;;16.60;99.90;;;;;;5125984;28;20077;-82
2022/05/27 08:17:09;;;;;;;2.80;1.60;;;;;;;;;;5140549;28;20023;-84
2022/05/27 08:19:35;;;;;;;2.15;1.35;;;16.80;99.90;;;;;;5137187;28;20032;-86
2022/05/27 08:22:01;;;;;;;2.08;1.25;;;;;;;;;;5139260;28;20020;-84
2022/05/27 08:24:27;;;;;;;2.78;1.25;;;;;;;;;;5109003;28;20019;-84
2022/05/27 08:26:54;;;;;;;2.00;1.30;;;;;;;;;;5131635;28;20028;-82
2022/05/27 08:29:19;;;;;;;3.63;1.80;;;17.00;99.90;;;;;;5122314;28;20019;-83
2022/05/27 08:31:45;;;;;;;3.10;1.55;;;17.10;99.90;;;;;;5136017;28;20218;-82
2022/05/27 08:39:46;;;;;;;2.92;1.70;;;17.20;99.90;;;;;;5125146;28;20053;-85
2022/05/27 08:42:36;;;;;;;4.03;1.40;;;17.30;99.90;;;;;;5118377;28;20027;-84
2022/05/27 08:45:13;;;;;;;2.95;1.75;;;17.50;99.90;;;;;;5118982;28;20031;-82
2022/05/27 08:47:49;;;;;;;3.08;1.90;;;17.60;99.90;;;;;;5104355;28;20058;-85
2022/05/27 08:50:40;;;;;;;3.53;1.52;;;17.50;99.90;;;;;;5104869;28;20020;-87
2022/05/27 08:53:36;;;;;;;3.75;1.50;;;17.50;99.90;;;;;;5113971;28;20096;-85
2022/05/27 09:01:51;;;;;;;4.78;1.85;;;17.10;99.90;;;;;;5123502;28;20039;-84
2022/05/27 09:04:41;;;;;;;5.50;1.40;;;17.30;99.90;;;;;;5113277;28;20032;-83
2022/05/27 09:07:34;;;;;;;2.72;1.38;;;17.30;99.90;;;;;;5113898;28;20020;-83
2022/05/27 09:10:04;;;;;;;3.20;1.13;;;17.50;99.90;;;;;;5099139;28;20042;-81
2022/05/27 09:12:58;;;;;;;4.18;1.40;;;17.60;99.90;;;;;;5094346;28;20120;-83
2022/05/27 09:15:54;;;;;;;3.45;1.25;;;17.50;99.90;;;;;;5097635;28;20499;-83
2022/05/27 09:18:38;;;;;;;5.05;1.33;;;17.30;99.90;;;;;;5093923;28;20087;-83
2022/05/27 09:21:06;;;;;;;7.93;1.30;;;17.30;99.90;;;;;;5088298;28;20023;-82
2022/05/27 09:23:54;;;;;;;2.80;1.00;;;17.10;99.90;;;;;;5123242;28;20020;-86
2022/05/27 09:26:26;;;;;;;3.28;1.30;;;17.20;99.90;;;;;;5089136;28;20064;-83
2022/05/27 09:29:03;;;;;;;2.35;1.02;;;17.30;99.90;;;;;;5110267;28;20023;-85
2022/05/27 09:31:41;;;;;;;2.53;1.50;;;17.40;99.90;;;;;;5096198;28;20032;-85
2022/05/27 09:34:10;;;;;;;3.70;1.65;;;17.40;99.90;;;;;;5090331;28;20097;-82
2022/05/27 09:36:41;;;;;;;2.88;1.13;;;17.30;99.90;;;;;;5095300;28;20027;-83
2022/05/27 09:39:11;;;;;;;2.75;1.45;;;17.50;99.90;;;;;;5088619;28;20027;-83
2022/05/27 09:41:58;;;;;;;3.35;1.50;;;18.70;99.90;;;;;;5116106;28;20030;-83
2022/05/27 09:44:30;;;;;;;4.53;1.70;;;17.80;99.90;;;;;;5108671;28;20023;-83
2022/05/27 09:46:55;;;;;;;2.92;1.40;;;17.90;99.90;;;;;;5089116;28;20042;-83
2022/05/27 09:49:21;;;;;;;6.22;1.42;;;17.80;99.90;;;;;;5108116;28;20055;-83
2022/05/27 09:51:47;;;;;;;3.08;1.35;;;17.60;99.90;;;;;;5107527;28;20096;-82
2022/05/27 09:54:27;;;;;;;4.97;2.22;;;18.90;99.90;;;;;;5098211;28;20074;-84
2022/05/27 09:57:02;;;;;;;2.47;1.35;;;17.40;99.90;;;;;;5092777;28;20023;-81
2022/05/27 09:59:35;;;;;;;1.85;1.15;;;20.00;99.90;;;;;;5105145;28;20107;-83
2022/05/27 10:02:15;;;;;;;3.13;1.45;;;17.60;99.90;;;;;;5118596;28;20059;-82
2022/05/27 10:04:51;;;;;;;4.20;1.23;;;17.50;99.90;;;;;;5079887;28;20032;-82
2022/05/27 10:07:36;;;;;;;2.85;1.17;;;17.30;99.90;;;;;;5112774;28;20032;-81
2022/05/27 10:10:20;;;;;;;2.92;1.45;;;17.50;99.90;;;;;;5108943;28;20024;-83
2022/05/27 10:12:46;;;;;;;6.78;2.13;;;17.30;99.90;;;;;;5110411;28;20024;-85
2022/05/27 10:15:34;;;;;;;4.47;1.60;;;17.40;99.90;;;;;;5095553;28;20024;-83
2022/05/27 10:18:18;;;;;;;3.63;1.38;;;17.40;99.90;;;;;;5072226;28;20080;-82
2022/05/27 10:20:50;;;;;;;7.22;2.58;;;17.40;99.90;;;;;;5115843;28;20028;-82
2022/05/27 10:23:33;;;;;;;3.33;1.48;;;17.20;99.90;;;;;;5092451;28;20031;-84
2022/05/27 10:26:17;;;;;;;4.68;1.67;;;17.20;99.90;;;;;;5119865;28;20035;-83
2022/05/27 10:28:42;;;;;;;3.75;1.40;;;17.50;99.90;;;;;;5119283;28;20042;-84
2022/05/27 10:31:16;;;;;;;6.25;1.48;;;17.20;99.90;;;;;;5106551;28;20024;-84
2022/05/27 10:33:47;;;;;;;4.45;1.70;;;17.30;99.90;;;;;;5110267;28;20095;-82
2022/05/27 10:36:54;;;;;;;2.42;1.23;;;17.20;99.90;;;;;;5120496;28;20083;-81
2022/05/27 10:39:28;;;;;;;3.22;1.30;;;17.30;99.90;;;;;;5097102;28;20226;-80
2022/05/27 10:42:24;;;;;;;2.95;1.60;;;18.10;99.90;;;;;;5092262;28;20122;-81
2022/05/27 10:45:09;;;;;;;1.88;1.30;;;17.40;99.90;;;;;;5108902;28;20030;-82
2022/05/27 10:48:06;;;;;;;4.55;1.40;;;17.60;99.90;;;;;;5105158;28;20028;-81
2022/05/27 10:50:43;;;;;;;3.40;1.40;;;17.60;99.90;;;;;;5103266;28;20044;-80
2022/05/27 10:53:28;;;;;;;3.08;1.70;;;17.60;99.90;;;;;;5095080;28;20027;-82
2022/05/27 10:56:25;;;;;;;3.33;1.42;;;17.70;99.90;;;;;;5094808;28;20103;-81
2022/05/27 11:02:10;;;;;;;3.40;2.00;;;17.50;99.90;;;;;;5105782;28;20081;-82
2022/05/27 11:04:45;;;;;;;3.38;1.52;;;17.50;99.90;;;;;;5086479;28;20027;-84
2022/05/27 11:07:31;;;;;;;4.93;1.55;;;17.40;99.90;;;;;;5096558;28;20031;-83
2022/05/27 11:10:15;;;;;;;4.20;1.80;;;17.50;99.90;;;;;;5099317;28;20028;-82
2022/05/27 11:17:01;;;;;;;6.32;2.20;;;17.60;99.90;;;;;;5041003;28;20104;-82
2022/05/27 11:19:29;;;;;;;4.30;2.20;;;17.60;99.90;;;;;;5096719;28;20043;-81
2022/05/27 11:22:27;;;;;;;5.15;1.70;;;17.90;99.90;;;;;;5098563;28;20107;-84
2022/05/27 11:25:29;;;;;;;3.40;1.70;;;18.00;99.90;;;;;;5112106;28;20030;-84
2022/05/27 11:28:01;;;;;;;6.40;2.10;;;18.20;99.90;;;;;;5113431;28;20104;-82
2022/05/27 11:30:48;;;;;;;4.45;1.92;;;19.30;99.90;;;;;;5106813;28;20032;-83
2022/05/27 11:33:22;;;;;;;5.80;3.30;;;18.30;99.90;;;;;;5112712;28;20020;-82
2022/05/27 11:36:16;;;;;;;6.22;1.98;;;18.30;99.90;;;;;;5105221;28;20030;-81
2022/05/27 11:39:06;;;;;;;3.55;2.00;;;18.10;99.90;;;;;;5102130;28;20035;-83
2022/05/27 11:42:03;;;;;;;7.68;3.45;;;18.00;99.90;;;;;;5120543;28;20028;-83
2022/05/27 11:44:40;;;;;;;8.13;2.75;;;18.00;99.90;;;;;;5087816;28;20039;-81
2022/05/27 11:47:20;;;;;;;3.30;1.73;;;17.80;99.90;;;;;;5114468;28;20051;-82
2022/05/27 11:50:09;;;;;;;9.00;2.58;;;17.70;99.90;;;;;;5121543;28;20034;-82
2022/05/27 11:53:03;;;;;;;4.72;2.53;;;17.60;99.90;;;;;;5103890;28;20024;-80
2022/05/27 11:55:52;;;;;;;3.80;2.00;;;17.60;99.90;;;;;;5097230;28;20393;-83
2022/05/27 11:58:18;;;;;;;5.60;3.13;;;17.70;99.90;;;;;;5097329;28;20503;-81
2022/05/27 12:00:50;;;;;;;4.82;2.40;;;17.60;99.90;;;;;;5104901;28;20039;-84
2022/05/27 12:03:32;;;;;;;2.78;1.85;;;17.70;99.90;;;;;;5105233;28;20032;-83
2022/05/27 12:06:04;;;;;;;3.30;1.90;;;17.50;99.90;;;;;;5112210;28;20035;-83
2022/05/27 12:08:43;;;;;;;4.63;2.40;;;17.40;99.90;;;;;;5093231;28;20054;-83
2022/05/27 12:11:26;;;;;;;4.68;2.35;;;18.60;99.90;;;;;;5094042;28;20028;-83
2022/05/27 12:14:26;;;;;;;3.92;2.10;;;17.40;99.90;;;;;;5103140;28;20050;-82
2022/05/27 12:16:52;;;;;;;6.70;3.75;;;17.40;99.90;;;;;;5071060;28;20514;-82
2022/05/27 12:19:29;;;;;;;8.20;2.25;;;19.00;99.90;;;;;;5080076;28;20121;-81
2022/05/27 12:22:00;;;;;;;5.30;2.50;;;17.40;99.90;;;;;;5083333;28;20046;-83
2022/05/27 12:24:37;;;;;;;3.90;2.03;;;17.50;99.90;;;;;;5081631;28;20035;-82
2022/05/27 12:27:04;;;;;;;8.63;3.13;;;17.50;99.90;;;;;;5074354;28;20028;-81
2022/05/27 12:29:32;;;;;;;4.72;2.33;;;17.50;99.90;;;;;;5074498;28;20040;-81
2022/05/27 12:31:59;;;;;;;5.43;2.60;;;17.50;99.90;;;;;;5064466;28;20047;-82
2022/05/27 12:34:27;;;;;;;5.05;2.22;;;17.80;99.90;;;;;;5081946;28;20024;-83
2022/05/27 12:37:12;;;;;;;6.43;2.72;;;17.50;99.90;;;;;;5070968;28;20028;-84
2022/05/27 12:39:38;;;;;;;4.00;2.53;;;17.50;99.90;;;;;;5087612;28;20024;-83
2022/05/27 12:42:18;;;;;;;4.25;2.97;;;17.60;99.90;;;;;;5077996;28;20036;-80
2022/05/27 12:44:45;;;;;;;4.53;2.35;;;17.70;99.90;;;;;;5068115;28;20039;-82
2022/05/27 12:47:28;;;;;;;3.20;2.40;;;17.90;99.90;;;;;;5088898;28;20052;-81
2022/05/27 12:50:06;;;;;;;4.20;3.00;;;17.90;99.90;;;;;;5097861;28;20037;-82
2022/05/27 12:52:32;;;;;;;5.07;2.42;;;17.80;99.90;;;;;;5080475;28;20021;-82
2022/05/27 12:55:10;;;;;;;3.50;2.10;;;18.00;99.90;;;;;;5079431;28;20017;-80
2022/05/27 13:00:57;;;;;;;3.22;1.85;;;18.70;99.90;;;;;;5099285;28;20040;-81
2022/05/27 13:03:36;;;;;;;4.68;2.20;;;18.60;99.90;;;;;;5100729;28;20024;-83
2022/05/27 13:06:33;;;;;;;3.28;1.98;;;18.80;99.90;;;;;;5084304;28;20028;-81
2022/05/27 13:09:19;;;;;;;4.00;2.20;;;19.00;99.90;;;;;;5086360;28;20482;-82
2022/05/27 13:11:46;;;;;;;4.57;2.30;;;19.00;99.90;;;;;;5101088;28;20533;-83
2022/05/27 13:14:44;;;;;;;3.30;2.28;;;19.00;99.90;;;;;;5086608;28;20031;-83
2022/05/27 13:17:26;;;;;;;4.22;2.40;;;19.10;99.90;;;;;;5093079;28;20024;-83
2022/05/27 13:20:00;;;;;;;4.63;2.58;;;19.00;99.90;;;;;;5083017;28;20030;-82
2022/05/27 13:22:51;;;;;;;4.38;2.00;;;19.10;99.90;;;;;;5081710;28;20037;-83
2022/05/27 13:25:19;;;;;;;3.72;2.58;;;19.00;99.90;;;;;;5070566;28;20047;-83
2022/05/27 13:27:46;;;;;;;5.03;2.20;;;18.90;99.90;;;;;;5069961;28;20032;-83
2022/05/27 13:30:14;;;;;;;3.72;2.10;;;18.90;99.90;;;;;;5075018;28;20024;-84
2022/05/27 13:33:08;;;;;;;4.70;2.05;;;18.80;99.90;;;;;;5095468;28;20020;-85
2022/05/27 13:35:39;;;;;;;3.95;2.13;;;18.70;99.90;;;;;;5103740;28;20032;-82
2022/05/27 13:38:10;;;;;;;3.33;2.10;;;18.70;99.90;;;;;;5072500;28;20020;-84
2022/05/27 13:40:36;;;;;;;3.00;2.20;;;18.80;99.90;;;;;;5067230;28;20036;-83
2022/05/27 13:43:18;;;;;;;3.65;2.00;;;19.30;99.90;;;;;;5078520;28;20503;-83
2022/05/27 13:45:49;;;;;;;4.20;2.10;;;19.00;99.90;;;;;;5078000;28;20230;-82
2022/05/27 13:48:27;;;;;;;2.92;1.90;;;19.30;99.90;;;;;;5075526;28;20517;-81
2022/05/27 13:51:08;;;;;;;4.80;2.35;;;19.30;99.90;;;;;;5080666;28;20028;-84
2022/05/27 13:53:35;;;;;;;5.50;2.50;;;;;;;;;;5091407;28;20487;-83
2022/05/27 13:56:18;;;;;;;4.68;2.60;;;19.30;99.90;;;;;;5097010;28;20020;-83
2022/05/27 13:59:01;;;;;;;4.82;2.60;;;19.50;99.90;;;;;;5076700;28;20056;-84
2022/05/27 14:01:49;;;;;;;4.85;2.25;;;19.70;99.90;;;;;;5087989;28;20044;-83
2022/05/27 14:04:38;;;;;;;5.68;2.03;;;19.90;99.90;;;;;;5065470;28;20029;-84
2022/05/27 14:07:35;;;;;;;4.07;2.08;;;20.10;99.90;;;;;;5089610;28;20044;-82
2022/05/27 14:10:09;;;;;;;8.85;1.90;;;20.10;99.90;;;;;;5065802;28;20500;-81
2022/05/27 14:12:37;;;;;;;2.80;1.58;;;20.10;99.90;;;;;;5092361;28;20076;-82
2022/05/27 14:15:12;;;;;;;3.78;1.70;;;20.20;99.90;;;;;;5095708;28;20052;-81